Time;durP1;ratioP1;P1;durP2;ratioP2;P2;SDS_P1;SDS_P2;PMS_P1;PMS_P2;Temp;Humidity;BMP_temperature;BMP_pressure;BME280_temperature;BME280_humidity;BME280_pressure;Samples;Min_cycle;Max_cycle;Signal;HPM_P1;HPM_P2
2022/10/14 00:01:35;;;;;;;;;;;;;;;12.88;69.11;101442.19;5090623;28;20416;-90
2022/10/14 00:07:27;;;;;;;;;;;;;;;12.87;69.37;101437.78;5014228;28;19984;-87
2022/10/14 00:13:43;;;;;;;;;;;;;;;12.76;69.66;101451.53;5038306;28;19964;-90
2022/10/14 00:16:36;;;;;;;;;;;;;;;12.75;69.82;101436.34;5003928;28;19969;-91
2022/10/14 00:19:40;;;;;;;;;;;;;;;12.74;69.91;101434.66;4965047;28;20539;-90
2022/10/14 00:22:13;;;;;;;;;;;;;;;12.73;69.94;101430.25;5003394;28;19922;-90
2022/10/14 00:24:53;;;;;;;;;;;;;;;12.71;69.91;101426.84;4995940;28;19933;-91
2022/10/14 00:27:19;;;;;;;;;;;;;;;12.68;70.00;101419.09;4982086;28;19988;-93
2022/10/14 00:29:47;;;;;;;;;;;;;;;12.79;69.80;101418.00;4984426;28;19930;-91
2022/10/14 00:32:43;;;;;;;;;;;;;;;;;;;;;
2022/10/14 00:35:17;;;;;;;;;;;;;;;12.75;69.59;101412.06;4952623;28;20453;-90
2022/10/14 00:37:55;;;;;;;;;;;;;;;12.76;69.34;101411.06;4999729;28;19925;-91
2022/10/14 00:40:24;;;;;;;;;;;;;;;12.70;69.95;101405.44;4995837;28;19916;-86
2022/10/14 00:43:03;;;;;;;;;;;;;;;12.70;69.96;101410.84;5077978;28;19921;-90
2022/10/14 00:45:42;;;;;;;;;;;;;;;12.66;69.81;101407.59;5077955;28;20289;-91
2022/10/14 00:48:45;;;;;;;;;;;;;;;;;;;;;
2022/10/14 00:51:17;;;;;;;;;;;;;;;12.62;69.96;101406.25;5084457;28;20433;-89
2022/10/14 00:53:44;;;;;;;;;;;;;;;12.55;70.18;101402.44;5077193;28;20011;-86
2022/10/14 00:56:13;;;;;;;;;;;;;;;12.66;69.93;101399.50;5069802;28;19921;-89
2022/10/14 00:58:41;;;;;;;;;;;;;;;12.74;69.74;101396.88;5084782;28;19947;-90
2022/10/14 01:01:08;;;;;;;;;;;;;;;12.76;69.76;101394.00;5064320;28;19926;-90
2022/10/14 01:03:34;;;;;;;;;;;;;;;12.83;69.73;101390.53;5064715;28;19943;-87
2022/10/14 01:06:08;;;;;;;;;;;;;;;12.78;70.01;101392.00;5068564;28;19928;-90
2022/10/14 01:08:52;;;;;;;;;;;;;;;12.84;69.76;101397.63;5083062;28;19917;-90
2022/10/14 01:11:18;;;;;;;;;;;;;;;12.84;70.01;101405.72;5088510;28;19921;-91
2022/10/14 01:14:08;;;;;;;;;;;;;;;12.85;69.94;101396.63;5080899;28;19921;-88
2022/10/14 01:17:25;;;;;;;;;;;;;;;12.89;69.82;101392.59;5090350;28;19920;-88
2022/10/14 01:20:11;;;;;;;;;;;;;;;12.97;70.09;101394.53;5006151;28;19917;-88
2022/10/14 01:23:15;;;;;;;;;;;;;;;13.00;72.59;101391.50;5010386;28;19930;-90
2022/10/14 01:25:40;;;;;;;;;;;;;;;13.05;72.20;101388.31;4946672;29;20017;-90
2022/10/14 01:28:25;;;;;;;;;;;;;;;13.16;72.48;101389.88;4948338;29;19996;-91
2022/10/14 01:31:00;;;;;;;;;;;;;;;13.11;71.83;101376.91;5026598;28;19924;-89
2022/10/14 01:33:31;;;;;;;;;;;;;;;13.16;71.20;101379.97;5097030;28;19927;-89
2022/10/14 01:36:35;;;;;;;;;;;;;;;13.23;71.45;101389.09;5075628;28;19948;-89
2022/10/14 01:39:22;;;;;;;;;;;;;;;13.23;71.45;101383.72;5047257;28;19920;-91
2022/10/14 01:42:28;;;;;;;;;;;;;;;13.27;71.50;101382.41;5033145;28;19921;-89
2022/10/14 01:44:55;;;;;;;;;;;;;;;13.26;71.18;101382.53;5082023;28;20356;-88
2022/10/14 01:47:20;;;;;;;;;;;;;;;13.28;71.32;101383.25;5071921;28;19928;-88
2022/10/14 01:49:51;;;;;;;;;;;;;;;13.39;70.79;101384.81;5054985;28;19921;-89
2022/10/14 01:52:21;;;;;;;;;;;;;;;13.35;69.65;101378.91;5070667;28;20007;-88
2022/10/14 01:54:49;;;;;;;;;;;;;;;13.35;68.98;101373.50;5072575;28;19982;-89
2022/10/14 01:57:17;;;;;;;;;;;;;;;13.28;68.56;101376.00;5070513;28;19949;-90
2022/10/14 01:59:51;;;;;;;;;;;;;;;13.28;68.37;101381.41;5078840;28;19928;-88
2022/10/14 02:02:17;;;;;;;;;;;;;;;13.16;68.96;101379.97;5079003;28;19969;-89
2022/10/14 02:04:42;;;;;;;;;;;;;;;13.18;68.97;101382.47;5089630;28;19984;-87
2022/10/14 02:07:14;;;;;;;;;;;;;;;13.16;69.12;101382.66;5102872;28;19962;-90
2022/10/14 02:09:49;;;;;;;;;;;;;;;13.06;69.34;101381.91;5087062;28;19958;-87
2022/10/14 02:12:27;;;;;;;;;;;;;;;12.94;69.20;101378.63;5085979;28;19928;-90
2022/10/14 02:15:02;;;;;;;;;;;;;;;12.71;69.98;101381.00;5089185;28;19931;-90
2022/10/14 02:17:30;;;;;;;;;;;;;;;12.66;69.76;101377.94;5066392;28;20408;-89
2022/10/14 02:19:58;;;;;;;;;;;;;;;12.55;70.45;101375.47;5054396;28;19916;-91
2022/10/14 02:22:30;;;;;;;;;;;;;;;12.49;70.75;101384.22;5064722;28;19964;-90
2022/10/14 02:24:56;;;;;;;;;;;;;;;12.56;70.37;101374.47;5057760;28;19963;-90
2022/10/14 02:27:21;;;;;;;;;;;;;;;12.56;70.28;101377.19;5069616;28;19920;-93
2022/10/14 02:29:48;;;;;;;;;;;;;;;12.58;70.41;101380.56;5072519;28;19928;-90
2022/10/14 02:32:14;;;;;;;;;;;;;;;12.56;72.00;101372.63;5059922;28;19929;-91
2022/10/14 02:34:40;;;;;;;;;;;;;;;12.57;72.60;101374.34;5058453;28;20419;-89
2022/10/14 02:37:06;;;;;;;;;;;;;;;12.65;72.16;101368.16;5092016;28;20383;-87
2022/10/14 02:39:34;;;;;;;;;;;;;;;12.67;72.69;101360.75;5107392;28;19931;-91
2022/10/14 02:42:00;;;;;;;;;;;;;;;12.74;72.08;101364.50;5059799;28;19978;-88
2022/10/14 02:44:27;;;;;;;;;;;;;;;12.75;71.37;101368.03;5064325;28;19971;-90
2022/10/14 02:46:55;;;;;;;;;;;;;;;12.72;71.27;101368.38;5064409;28;20348;-89
2022/10/14 02:49:21;;;;;;;;;;;;;;;12.72;70.99;101369.22;5088652;28;19927;-86
2022/10/14 02:51:46;;;;;;;;;;;;;;;12.57;71.23;101370.78;5069131;28;19923;-87
2022/10/14 02:54:11;;;;;;;;;;;;;;;12.57;71.00;101368.06;5061692;28;19916;-90
2022/10/14 02:56:37;;;;;;;;;;;;;;;12.53;71.04;101358.63;5074013;28;20380;-90
2022/10/14 02:59:05;;;;;;;;;;;;;;;12.44;71.03;101353.16;5072740;28;20030;-90
2022/10/14 03:01:31;;;;;;;;;;;;;;;12.37;70.96;101346.69;5057721;28;20394;-90
2022/10/14 03:03:57;;;;;;;;;;;;;;;12.39;70.95;101343.84;5075915;28;19951;-88
2022/10/14 03:06:22;;;;;;;;;;;;;;;12.36;70.92;101355.78;5051933;28;20073;-88
2022/10/14 03:08:47;;;;;;;;;;;;;;;12.21;71.52;101347.38;5053805;28;19987;-90
2022/10/14 03:11:13;;;;;;;;;;;;;;;12.15;71.68;101350.72;5038295;28;19925;-88
2022/10/14 03:13:38;;;;;;;;;;;;;;;12.17;71.59;101345.16;5043150;28;20316;-90
2022/10/14 03:16:03;;;;;;;;;;;;;;;12.03;72.35;101347.41;5049287;28;19924;-88
2022/10/14 03:18:30;;;;;;;;;;;;;;;11.95;72.42;101347.31;5036373;28;19924;-90
2022/10/14 03:20:55;;;;;;;;;;;;;;;11.87;72.83;101349.94;5049494;28;19978;-89
2022/10/14 03:23:21;;;;;;;;;;;;;;;11.94;72.50;101351.03;5052178;28;20027;-86
2022/10/14 03:25:48;;;;;;;;;;;;;;;11.82;73.11;101346.81;5051182;28;19972;-87
2022/10/14 03:28:19;;;;;;;;;;;;;;;11.75;73.47;101349.28;5035585;28;19928;-87
2022/10/14 03:30:44;;;;;;;;;;;;;;;11.82;73.22;101347.69;5050110;28;19939;-90
2022/10/14 03:33:10;;;;;;;;;;;;;;;11.84;73.15;101339.41;5029500;28;19920;-88
2022/10/14 03:35:35;;;;;;;;;;;;;;;11.77;73.23;101332.94;5049453;28;19963;-89
2022/10/14 03:38:02;;;;;;;;;;;;;;;11.85;73.15;101335.75;5031339;28;20019;-89
2022/10/14 03:40:28;;;;;;;;;;;;;;;11.84;73.04;101339.41;5049561;28;19982;-86
2022/10/14 03:42:58;;;;;;;;;;;;;;;11.85;73.18;101335.75;5048975;28;19977;-88
2022/10/14 03:45:23;;;;;;;;;;;;;;;11.93;72.77;101332.31;5047994;28;20376;-90
2022/10/14 03:47:48;;;;;;;;;;;;;;;11.94;72.54;101331.28;5038412;28;19920;-89
2022/10/14 03:50:14;;;;;;;;;;;;;;;11.91;72.73;101332.44;5050250;28;19935;-86
2022/10/14 03:52:40;;;;;;;;;;;;;;;11.82;73.04;101330.63;5049077;28;20117;-89
2022/10/14 03:55:07;;;;;;;;;;;;;;;11.76;73.25;101324.03;5050233;28;19924;-89
2022/10/14 03:57:32;;;;;;;;;;;;;;;11.82;73.23;101317.16;5049169;28;20023;-89
2022/10/14 03:59:59;;;;;;;;;;;;;;;11.77;73.32;101314.09;5062584;28;20046;-89
2022/10/14 04:02:24;;;;;;;;;;;;;;;11.78;73.52;101318.50;5053642;28;19968;-86
2022/10/14 04:04:49;;;;;;;;;;;;;;;11.86;73.12;101315.88;5036038;28;20416;-91
2022/10/14 04:07:16;;;;;;;;;;;;;;;11.88;73.15;101315.75;5037421;28;19920;-90
2022/10/14 04:09:41;;;;;;;;;;;;;;;11.84;73.53;101312.47;5066870;28;19947;-86
2022/10/14 04:12:06;;;;;;;;;;;;;;;11.86;73.54;101315.88;5077814;28;20033;-89
2022/10/14 04:14:33;;;;;;;;;;;;;;;11.86;73.84;101318.56;5077447;28;19912;-86
2022/10/14 04:16:58;;;;;;;;;;;;;;;11.90;74.00;101317.28;5074856;28;19931;-89
2022/10/14 04:19:24;;;;;;;;;;;;;;;11.89;74.11;101314.75;5067632;28;20007;-87
2022/10/14 04:21:50;;;;;;;;;;;;;;;11.84;73.84;101320.56;5053748;28;20441;-91
2022/10/14 04:24:16;;;;;;;;;;;;;;;11.81;74.14;101307.41;5051843;28;19928;-88
2022/10/14 04:26:42;;;;;;;;;;;;;;;11.84;73.91;101315.16;5036266;28;19929;-86
2022/10/14 04:29:09;;;;;;;;;;;;;;;11.81;74.28;101310.09;5058854;28;19925;-88
2022/10/14 04:31:45;;;;;;;;;;;;;;;11.95;73.38;101312.28;5062035;28;19932;-90
2022/10/14 04:34:12;;;;;;;;;;;;;;;11.95;73.53;101312.28;5049908;28;20023;-88
2022/10/14 04:36:38;;;;;;;;;;;;;;;12.10;73.24;101311.75;5051450;28;19928;-88
2022/10/14 04:39:04;;;;;;;;;;;;;;;12.19;73.12;101316.19;5049608;28;19928;-88
2022/10/14 04:41:30;;;;;;;;;;;;;;;12.21;73.38;101312.34;5046120;28;19928;-88
2022/10/14 04:43:55;;;;;;;;;;;;;;;12.31;73.71;101325.72;5050490;28;20006;-87
2022/10/14 04:46:20;;;;;;;;;;;;;;;12.41;73.32;101323.81;5037395;28;19958;-88
2022/10/14 04:48:49;;;;;;;;;;;;;;;12.56;73.19;101318.69;5047585;28;19921;-86
2022/10/14 04:51:14;;;;;;;;;;;;;;;12.68;73.11;101321.97;5053001;28;20000;-87
2022/10/14 04:53:39;;;;;;;;;;;;;;;12.64;73.07;101320.59;5056209;28;21022;-88
2022/10/14 04:56:05;;;;;;;;;;;;;;;12.83;72.93;101317.69;5041203;28;19932;-88
2022/10/14 04:58:31;;;;;;;;;;;;;;;12.93;72.92;101322.13;5054347;28;19931;-89
2022/10/14 05:00:59;;;;;;;;;;;;;;;13.01;72.95;101332.94;5061073;28;19931;-89
2022/10/14 05:03:24;;;;;;;;;;;;;;;13.17;72.11;101334.91;5066490;28;19927;-90
2022/10/14 05:05:50;;;;;;;;;;;;;;;13.17;72.29;101333.03;5065032;28;19920;-87
2022/10/14 05:08:16;;;;;;;;;;;;;;;13.19;72.48;101325.63;5066150;28;19925;-87
2022/10/14 05:10:41;;;;;;;;;;;;;;;13.32;72.58;101324.34;5073061;28;19927;-94
2022/10/14 05:13:07;;;;;;;;;;;;;;;13.34;72.43;101327.75;5071397;28;20018;-91
2022/10/14 05:15:33;;;;;;;;;;;;;;;13.37;72.54;101313.91;5066177;28;20092;-90
2022/10/14 05:17:59;;;;;;;;;;;;;;;13.41;73.14;101329.63;5049036;28;19970;-91
2022/10/14 05:20:25;;;;;;;;;;;;;;;13.60;72.92;101328.53;5068546;28;19935;-88
2022/10/14 05:22:52;;;;;;;;;;;;;;;13.71;72.99;101322.78;5065783;28;19920;-89
2022/10/14 05:25:18;;;;;;;;;;;;;;;13.84;72.76;101322.31;5067797;28;20037;-91
2022/10/14 05:27:47;;;;;;;;;;;;;;;13.99;72.78;101318.97;5057600;28;20316;-94
2022/10/14 05:30:15;;;;;;;;;;;;;;;14.15;72.35;101314.41;5090739;28;20036;-90
2022/10/14 05:32:41;;;;;;;;;;;;;;;14.28;71.99;101322.03;5071349;28;20807;-91
2022/10/14 05:35:07;;;;;;;;;;;;;;;14.38;71.77;101327.25;5075377;28;19920;-89
2022/10/14 05:37:32;;;;;;;;;;;;;;;14.53;70.99;101324.69;5065045;28;19932;-87
2022/10/14 05:39:58;;;;;;;;;;;;;;;14.36;70.33;101326.59;5067134;28;20284;-88
2022/10/14 05:42:23;;;;;;;;;;;;;;;14.60;68.90;101333.03;5070704;28;19924;-93
2022/10/14 05:44:50;;;;;;;;;;;;;;;14.78;68.16;101333.69;5058911;28;19920;-94
2022/10/14 05:47:15;;;;;;;;;;;;;;;14.89;67.23;101330.59;5072205;28;20110;-93
2022/10/14 05:49:42;;;;;;;;;;;;;;;15.04;66.91;101327.19;5076930;28;19962;-93
2022/10/14 05:52:09;;;;;;;;;;;;;;;15.26;66.14;101337.25;5083865;28;19924;-93
2022/10/14 05:54:36;;;;;;;;;;;;;;;15.36;65.68;101329.78;5055685;28;19931;-92
2022/10/14 05:57:01;;;;;;;;;;;;;;;15.49;65.36;101333.78;5070562;28;20039;-93
2022/10/14 05:59:30;;;;;;;;;;;;;;;15.57;64.87;101344.59;5068115;28;20065;-94
2022/10/14 06:01:56;;;;;;;;;;;;;;;15.50;64.57;101340.88;5056662;28;19927;-93
2022/10/14 06:04:23;;;;;;;;;;;;;;;15.60;64.24;101341.50;5093855;28;20279;-92
2022/10/14 06:06:48;;;;;;;;;;;;;;;15.82;63.58;101348.84;5077998;28;19943;-94
2022/10/14 06:09:14;;;;;;;;;;;;;;;15.90;63.41;101345.28;5070363;28;19977;-93
2022/10/14 06:11:41;;;;;;;;;;;;;;;16.00;63.27;101339.59;5050568;28;19923;-94
2022/10/14 06:14:07;;;;;;;;;;;;;;;16.13;62.90;101344.41;5074766;28;19930;-92
2022/10/14 06:16:34;;;;;;;;;;;;;;;16.19;63.32;101336.41;5092467;28;20002;-93
2022/10/14 06:19:01;;;;;;;;;;;;;;;16.22;63.60;101337.91;5073671;28;19927;-93
2022/10/14 06:21:33;;;;;;;;;;;;;;;16.21;64.42;101342.50;5058627;28;19936;-92
2022/10/14 06:23:59;;;;;;;;;;;;;;;16.34;64.24;101341.91;5072250;28;20322;-93
2022/10/14 06:26:24;;;;;;;;;;;;;;;16.30;64.62;101345.16;5055469;28;19932;-93
2022/10/14 06:28:50;;;;;;;;;;;;;;;16.59;63.80;101336.25;5088429;28;19924;-94
2022/10/14 06:31:19;;;;;;;;;;;;;;;16.67;63.44;101337.00;5083076;28;19920;-92
2022/10/14 06:33:47;;;;;;;;;;;;;;;16.99;62.53;101332.28;5084078;28;19916;-92
2022/10/14 06:36:14;;;;;;;;;;;;;;;17.09;62.19;101332.88;5073616;28;19986;-92
2022/10/14 06:38:39;;;;;;;;;;;;;;;17.47;61.38;101331.91;5067082;28;20045;-94
2022/10/14 06:41:05;;;;;;;;;;;;;;;17.50;60.86;101332.34;5099442;28;19920;-93
2022/10/14 06:43:31;;;;;;;;;;;;;;;17.46;60.82;101336.47;5071932;28;20292;-92
2022/10/14 06:45:58;;;;;;;;;;;;;;;17.71;59.81;101337.00;5075186;28;19932;-91
2022/10/14 06:48:25;;;;;;;;;;;;;;;18.04;59.10;101336.53;5083596;28;19942;-89
2022/10/14 06:50:51;;;;;;;;;;;;;;;18.32;58.14;101333.03;5097935;28;20049;-90
2022/10/14 06:53:20;;;;;;;;;;;;;;;18.48;57.26;101337.38;5064370;28;20347;-93
2022/10/14 06:55:46;;;;;;;;;;;;;;;18.65;57.34;101336.03;5060314;28;19924;-92
2022/10/14 06:58:12;;;;;;;;;;;;;;;19.07;55.86;101331.53;5064816;28;19947;-91
2022/10/14 07:00:37;;;;;;;;;;;;;;;19.63;54.20;101325.06;5092966;28;19979;-92
2022/10/14 07:03:06;;;;;;;;;;;;;;;19.49;53.89;101326.91;5094115;28;19936;-92
2022/10/14 07:05:32;;;;;;;;;;;;;;;19.74;53.22;101323.69;5084775;28;20077;-93
2022/10/14 07:07:59;;;;;;;;;;;;;;;20.52;51.32;101317.69;5074188;28;19953;-93
2022/10/14 07:10:25;;;;;;;;;;;;;;;20.86;50.23;101322.06;5061748;28;19916;-92
2022/10/14 07:12:55;;;;;;;;;;;;;;;21.36;48.59;101305.97;5090450;28;20276;-90
2022/10/14 07:15:20;;;;;;;;;;;;;;;21.73;47.53;101310.84;5060729;28;19928;-93
2022/10/14 07:17:46;;;;;;;;;;;;;;;22.45;45.88;101312.28;5089769;28;19927;-91
2022/10/14 07:20:12;;;;;;;;;;;;;;;23.39;43.61;101313.00;5095113;28;19968;-93
2022/10/14 07:22:38;;;;;;;;;;;;;;;23.28;42.97;101299.22;5073517;28;20407;-94
2022/10/14 07:25:05;;;;;;;;;;;;;;;23.72;41.90;101303.50;5057345;28;20306;-94
2022/10/14 07:27:31;;;;;;;;;;;;;;;23.80;41.80;101303.19;5065222;28;19924;-93
2022/10/14 07:30:00;;;;;;;;;;;;;;;24.46;40.92;101303.19;5080501;28;19920;-94
2022/10/14 07:32:28;;;;;;;;;;;;;;;25.80;37.70;101294.03;5074887;28;19920;-92
2022/10/14 07:34:55;;;;;;;;;;;;;;;26.57;35.82;101292.59;5072289;28;19932;-95
2022/10/14 07:37:22;;;;;;;;;;;;;;;26.90;35.44;101294.50;5063303;28;19978;-91
2022/10/14 07:39:48;;;;;;;;;;;;;;;26.67;35.40;101295.53;5075254;28;19916;-93
2022/10/14 07:42:17;;;;;;;;;;;;;;;26.29;35.76;101288.84;5058274;28;19920;-96
2022/10/14 07:44:52;;;;;;;;;;;;;;;25.91;36.70;101286.81;5098479;28;19963;-91
2022/10/14 07:47:18;;;;;;;;;;;;;;;26.53;35.17;101281.22;5074205;28;19920;-92
2022/10/14 07:49:44;;;;;;;;;;;;;;;26.26;35.77;101283.81;5081173;28;19985;-88
2022/10/14 07:52:10;;;;;;;;;;;;;;;26.49;35.00;101282.00;5061896;28;19935;-89
2022/10/14 07:54:37;;;;;;;;;;;;;;;26.49;35.21;101287.50;5062757;28;19920;-96
2022/10/14 07:57:09;;;;;;;;;;;;;;;25.63;37.00;101284.88;5069724;28;19927;-91
2022/10/14 07:59:36;;;;;;;;;;;;;;;26.89;35.21;101292.81;5065874;28;19916;-95
2022/10/14 08:02:08;;;;;;;;;;;;;;;25.45;36.72;101295.00;5073427;28;19920;-95
2022/10/14 08:04:36;;;;;;;;;;;;;;;24.70;38.31;101276.59;5051878;28;20307;-95
2022/10/14 08:07:05;;;;;;;;;;;;;;;25.12;37.23;101284.66;5092480;28;19928;-94
2022/10/14 08:09:33;;;;;;;;;;;;;;;24.47;37.96;101277.44;5092454;28;19924;-92
2022/10/14 08:12:12;;;;;;;;;;;;;;;24.80;37.57;101276.81;5090800;28;19987;-92
2022/10/14 08:14:39;;;;;;;;;;;;;;;25.84;35.34;101275.09;5103788;28;19923;-91
2022/10/14 08:17:06;;;;;;;;;;;;;;;26.44;33.81;101273.66;5065932;28;19919;-92
2022/10/14 08:19:32;;;;;;;;;;;;;;;24.79;35.62;101279.81;5094068;28;19923;-93
2022/10/14 08:21:58;;;;;;;;;;;;;;;25.43;34.51;101280.66;5102127;28;19920;-93
2022/10/14 08:24:27;;;;;;;;;;;;;;;25.49;34.94;101274.16;5077578;28;19960;-94
2022/10/14 08:26:59;;;;;;;;;;;;;;;26.01;33.81;101269.63;5066925;28;20023;-95
2022/10/14 08:29:32;;;;;;;;;;;;;;;26.02;33.97;101271.31;5103779;28;19920;-95
2022/10/14 08:32:02;;;;;;;;;;;;;;;25.19;34.84;101281.78;5093479;28;19985;-94
2022/10/14 08:34:35;;;;;;;;;;;;;;;24.13;37.25;101274.38;5095318;28;20343;-95
2022/10/14 08:37:06;;;;;;;;;;;;;;;25.32;35.66;101276.03;5099184;28;20284;-95
2022/10/14 08:39:34;;;;;;;;;;;;;;;26.93;32.92;101277.41;5112572;28;19944;-90
2022/10/14 08:42:12;;;;;;;;;;;;;;;28.34;30.57;101288.63;5088570;28;20898;-91
2022/10/14 08:45:07;;;;;;;;;;;;;;;28.47;30.09;101272.69;5093311;28;19924;-90
2022/10/14 08:47:35;;;;;;;;;;;;;;;29.79;28.21;101277.22;5106407;28;19916;-94
2022/10/14 08:50:25;;;;;;;;;;;;;;;29.37;28.78;101269.88;5086437;28;19923;-96
2022/10/14 08:53:07;;;;;;;;;;;;;;;30.64;27.25;101276.63;5060627;28;20034;-94
2022/10/14 08:55:47;;;;;;;;;;;;;;;32.64;24.85;101289.38;5081493;28;19916;-96
2022/10/14 09:01:15;;;;;;;;;;;;;;;33.08;23.17;101282.78;5090196;28;19927;-95
2022/10/14 09:03:45;;;;;;;;;;;;;;;32.96;23.26;101281.22;5074825;28;19928;-94
2022/10/14 09:06:16;;;;;;;;;;;;;;;32.33;23.55;101281.31;5100573;28;19923;-93
2022/10/14 09:08:45;;;;;;;;;;;;;;;32.34;23.57;101296.91;5087256;28;19968;-93
2022/10/14 09:11:21;;;;;;;;;;;;;;;32.96;22.62;101286.78;5081932;28;19920;-91
2022/10/14 09:13:55;;;;;;;;;;;;;;;32.49;23.38;101296.75;5091188;28;19995;-91
2022/10/14 09:16:20;;;;;;;;;;;;;;;33.95;22.10;101287.16;5074611;28;20064;-95
2022/10/14 09:19:01;;;;;;;;;;;;;;;34.36;21.45;101278.13;5098544;28;19924;-95
2022/10/14 09:21:52;;;;;;;;;;;;;;;34.92;20.91;101274.28;5088107;28;20007;-94
2022/10/14 09:24:41;;;;;;;;;;;;;;;34.83;20.86;101295.69;5178627;22;19963;-95
2022/10/14 09:27:17;;;;;;;;;;;;;;;33.36;21.98;101286.59;5073825;28;19935;-95
2022/10/14 09:29:59;;;;;;;;;;;;;;;31.96;23.86;101291.09;5060221;28;20369;-96
2022/10/14 09:33:05;;;;;;;;;;;;;;;32.16;23.54;101293.69;5080943;28;20397;-95
2022/10/14 09:35:39;;;;;;;;;;;;;;;30.34;25.93;101294.16;5080622;28;19985;-93
2022/10/14 09:38:06;;;;;;;;;;;;;;;28.82;27.83;101303.38;5050624;28;19929;-90
2022/10/14 09:40:34;;;;;;;;;;;;;;;28.17;29.50;101305.34;5075891;28;20368;-93
2022/10/14 09:43:09;;;;;;;;;;;;;;;27.71;29.76;101288.31;5065056;28;19992;-94
2022/10/14 09:45:56;;;;;;;;;;;;;;;28.94;28.60;101289.34;5338146;22;21242;-90
2022/10/14 09:48:45;;;;;;;;;;;;;;;30.39;26.45;101296.91;5006745;28;20485;-94
2022/10/14 09:51:32;;;;;;;;;;;;;;;29.81;27.01;101292.44;5032046;28;20740;-94
2022/10/14 09:54:27;;;;;;;;;;;;;;;30.88;25.41;101305.47;5017804;28;19925;-94
2022/10/14 09:57:21;;;;;;;;;;;;;;;29.65;27.11;101288.78;5011877;28;19921;-93
2022/10/14 09:59:57;;;;;;;;;;;;;;;28.61;28.19;101279.44;5004141;28;19929;-94
2022/10/14 10:02:37;;;;;;;;;;;;;;;28.58;28.86;101296.56;5010831;28;20373;-93
2022/10/14 10:05:12;;;;;;;;;;;;;;;28.15;29.37;101296.50;5011949;28;19940;-93
2022/10/14 10:07:43;;;;;;;;;;;;;;;29.40;26.92;101285.94;5028564;28;19995;-93
2022/10/14 10:10:19;;;;;;;;;;;;;;;30.29;26.35;101286.66;5016545;28;19972;-93
2022/10/14 10:12:49;;;;;;;;;;;;;;;30.53;25.51;101284.13;5011453;28;19931;-95
2022/10/14 10:15:26;;;;;;;;;;;;;;;30.49;25.27;101286.66;5031587;28;20089;-93
2022/10/14 10:18:00;;;;;;;;;;;;;;;29.66;26.33;101284.91;5009877;28;19929;-93
2022/10/14 10:20:35;;;;;;;;;;;;;;;28.66;28.01;101298.84;5017162;28;19926;-94
2022/10/14 10:23:17;;;;;;;;;;;;;;;28.93;27.99;101289.59;5014096;28;19981;-94
2022/10/14 10:26:17;;;;;;;;;;;;;;;27.09;29.53;101291.41;5015253;28;19925;-94
2022/10/14 10:28:44;;;;;;;;;;;;;;;28.86;27.37;101289.00;5030763;28;19922;-94
2022/10/14 10:31:31;;;;;;;;;;;;;;;29.36;27.05;101290.34;5013046;28;19922;-93
2022/10/14 10:34:15;;;;;;;;;;;;;;;26.74;30.29;101287.91;5014530;28;19918;-95
2022/10/14 10:36:57;;;;;;;;;;;;;;;27.58;29.27;101286.81;5014999;28;20000;-93
2022/10/14 10:39:36;;;;;;;;;;;;;;;28.49;28.04;101276.03;5007442;28;19922;-96
2022/10/14 10:42:02;;;;;;;;;;;;;;;26.51;30.37;101296.34;4999791;28;20425;-94
2022/10/14 10:44:29;;;;;;;;;;;;;;;26.82;30.21;101278.38;5014923;28;19918;-94
2022/10/14 10:47:23;;;;;;;;;;;;;;;26.20;30.14;101284.84;5287149;22;19978;-90
2022/10/14 10:50:13;;;;;;;;;;;;;;;25.00;32.44;101281.91;5043499;28;19925;-93
2022/10/14 10:53:14;;;;;;;;;;;;;;;25.58;31.26;101291.13;5078140;28;19920;-93
2022/10/14 10:56:18;;;;;;;;;;;;;;;24.13;33.93;101274.38;5012645;28;19984;-90
2022/10/14 10:58:43;;;;;;;;;;;;;;;24.33;33.80;101286.97;5047527;28;19921;-92
2022/10/14 11:01:25;;;;;;;;;;;;;;;25.45;30.93;101277.63;5086928;28;19920;-90
2022/10/14 11:04:15;;;;;;;;;;;;;;;25.98;30.44;101289.41;5082804;28;20015;-93
2022/10/14 11:12:49;;;;;;;;;;;;;;;24.93;32.38;101292.22;5082385;28;19943;-92
2022/10/14 11:15:34;;;;;;;;;;;;;;;25.89;31.33;101277.94;5082241;28;19924;-95
2022/10/14 11:18:25;;;;;;;;;;;;;;;27.22;29.33;101273.66;5078306;28;20286;-95
2022/10/14 11:21:10;;;;;;;;;;;;;;;27.12;29.61;101274.34;5069351;28;19900;-92
2022/10/14 11:29:39;;;;;;;;;;;;;;;24.92;32.73;101276.81;5044140;28;20028;-95
2022/10/14 11:32:44;;;;;;;;;;;;;;;23.82;35.00;101270.00;5047164;28;20610;-94
2022/10/14 11:35:37;;;;;;;;;;;;;;;21.98;38.33;101269.84;5052959;28;19929;-95
2022/10/14 11:38:33;;;;;;;;;;;;;;;21.60;38.80;101271.56;5048733;28;20008;-92
2022/10/14 11:41:44;;;;;;;;;;;;;;;21.02;40.50;101268.84;5045779;28;19932;-96
2022/10/14 11:44:55;;;;;;;;;;;;;;;20.84;40.80;101269.56;4926964;29;19930;-95
2022/10/14 11:47:51;;;;;;;;;;;;;;;20.39;42.04;101256.56;5045983;22;19928;-89
2022/10/14 11:50:50;;;;;;;;;;;;;;;20.65;40.83;101254.88;5078446;28;20336;-95
2022/10/14 11:53:51;;;;;;;;;;;;;;;20.14;41.70;101263.72;5025146;28;19936;-90
2022/10/14 11:56:41;;;;;;;;;;;;;;;19.56;44.08;101251.41;5025170;28;20368;-92
2022/10/14 12:02:29;;;;;;;;;;;;;;;19.89;43.59;101244.38;5029895;28;19937;-96
2022/10/14 12:05:23;;;;;;;;;;;;;;;20.00;43.01;101241.88;5020064;28;19937;-95
2022/10/14 12:08:24;;;;;;;;;;;;;;;20.36;42.50;101245.22;5024522;28;19921;-90
2022/10/14 12:11:12;;;;;;;;;;;;;;;20.23;42.91;101246.06;5013546;28;20317;-96
2022/10/14 12:13:54;;;;;;;;;;;;;;;20.33;42.82;101257.41;5046908;28;19929;-96
2022/10/14 12:16:42;;;;;;;;;;;;;;;19.94;42.87;101231.78;5078409;28;19913;-89
2022/10/14 12:19:09;;;;;;;;;;;;;;;19.65;43.60;101243.06;5060262;28;19940;-92
2022/10/14 12:22:00;;;;;;;;;;;;;;;19.61;43.92;101238.00;5107031;22;19963;-87
2022/10/14 12:24:59;;;;;;;;;;;;;;;19.72;44.25;101241.22;5146880;22;19957;-90
2022/10/14 12:27:40;;;;;;;;;;;;;;;19.31;44.87;101234.75;5050675;28;19925;-93
2022/10/14 12:30:36;;;;;;;;;;;;;;;19.71;44.50;101243.06;5050738;28;19932;-93
2022/10/14 12:33:09;;;;;;;;;;;;;;;20.06;43.46;101234.72;5059258;28;19932;-92
2022/10/14 12:35:43;;;;;;;;;;;;;;;19.64;44.09;101235.91;5048371;28;19965;-91
2022/10/14 12:38:17;;;;;;;;;;;;;;;19.37;44.85;101236.69;5098722;22;19975;-89
2022/10/14 12:40:53;;;;;;;;;;;;;;;19.00;45.63;101251.63;5077544;28;19928;-88
2022/10/14 12:43:43;;;;;;;;;;;;;;;19.17;45.40;101239.34;5104485;28;19904;-94
2022/10/14 12:46:44;;;;;;;;;;;;;;;18.84;45.44;101236.44;5099889;28;19966;-95
2022/10/14 12:49:32;;;;;;;;;;;;;;;18.56;46.26;101237.31;5083960;28;19924;-96
2022/10/14 12:52:43;;;;;;;;;;;;;;;18.20;46.29;101234.75;5094034;28;19944;-92
2022/10/14 12:55:19;;;;;;;;;;;;;;;18.01;46.98;101232.72;5097813;28;19931;-93
2022/10/14 12:58:07;;;;;;;;;;;;;;;18.13;47.11;101242.03;5070439;28;19925;-92
2022/10/14 13:00:37;;;;;;;;;;;;;;;18.03;48.10;101233.38;5054752;28;19992;-92
2022/10/14 13:03:09;;;;;;;;;;;;;;;18.08;48.15;101233.63;5055464;28;19916;-93
2022/10/14 13:06:18;;;;;;;;;;;;;;;18.06;47.88;101250.13;5076872;28;19939;-94
2022/10/14 13:09:06;;;;;;;;;;;;;;;17.96;48.15;101229.72;5036979;28;19993;-93
2022/10/14 13:11:37;;;;;;;;;;;;;;;17.97;47.43;101234.97;5103243;28;19919;-91
2022/10/14 13:14:31;;;;;;;;;;;;;;;17.80;47.22;101245.25;5153022;22;19928;-89
2022/10/14 13:17:52;;;;;;;;;;;;;;;17.56;47.68;101226.59;5412376;22;19935;-93
2022/10/14 13:26:57;;;;;;;;;;;;;;;17.41;47.66;101240.22;5092706;28;19966;-92
2022/10/14 13:32:53;;;;;;;;;;;;;;;17.22;48.51;101244.41;5073573;28;19959;-94
2022/10/14 13:35:33;;;;;;;;;;;;;;;17.25;48.86;101244.84;5056763;28;19920;-92
2022/10/14 13:38:20;;;;;;;;;;;;;;;17.22;48.88;101237.09;5058179;28;19920;-96
2022/10/14 13:41:05;;;;;;;;;;;;;;;17.29;48.78;101231.75;5055962;28;19957;-94
2022/10/14 13:43:56;;;;;;;;;;;;;;;17.23;48.96;101246.06;5073898;28;19916;-93
2022/10/14 13:46:28;;;;;;;;;;;;;;;16.97;49.73;101228.41;5077959;28;19917;-89
2022/10/14 13:48:59;;;;;;;;;;;;;;;16.89;49.70;101231.25;5057157;28;20012;-92